Carcaixent, Spain
Current Conditions -  °F | °C
As of 4:00 PM on Saturday 27 Dec 2014 (Local Time) from LEVC Reporting Station
Clear Clear  
Wind Chill: 63°   Ceiling: Unl
Heat Index: 63°   Visibility: 6mi
Dew Point: 43°   Wind: 13mph
Humidity: 48%   Direction: 260°W
Pressure: 30.03"   Gusts: NA
Location:  39.13°N, 0.45°W
Report Text: LEVC 271500Z 26011KT CAVOK 17/06 Q1017 NOSIG
Loading
Personal Weather Stations






























Interactive Weather Map New forecast layout! Learn more

10-Day Weather Forecast

Advertisements
Track Severe Weather on mobile